Zagreb — 9AA5910 — position and weather

sailwx.info

Track history (hours):
 
Tides and Currents Weather Stations Pressure Air Temp Water Temp Dewpoint Dewpoint Depression Visibility Wind Speed Wind Dir Waves Ship Positions

Zagreb

Last reported at 2015-Jul-04 23:33 UTC. Time now 2015-Jul-05 06:09 UTC.
Position N 56°60' E 007°54'.

Length 229 m; draft 13.1 m.

Type: Cargo ship. MMSI: 238249000.

Date/timePositionNaut miles runAvg speedWind from/ knotsBaromVisibWave heightAir tempDewpointWater temp
2015-Jul-04 23:33N 56°60' E 007°54'1212.2
2015-Jul-04 22:33N 57°09' E 008°08'1412.2
2015-Jul-04 21:24N 57°20' E 008°24'1112.3
2015-Jul-04 20:28N 57°29' E 008°38'1112.3
2015-Jul-04 19:33N 57°38' E 008°52'1211.7
2015-Jul-04 18:33N 57°45' E 009°09'1212.1
2015-Jul-04 17:33N 57°48' E 009°31'1111.2
2015-Jul-04 16:33N 57°50' E 009°52'1212.1
2015-Jul-04 15:32N 57°50' E 010°15'1212.2
2015-Jul-04 14:33N 57°50' E 010°38'1010.4
2015-Jul-04 13:33N 57°44' E 010°54'1312.8
2015-Jul-04 12:33N 57°35' E 011°11'1312.6
2015-Jul-04 11:33N 57°26' E 011°27'1212.4
2015-Jul-04 10:33N 57°14' E 011°35'1212.4
2015-Jul-04 09:34N 57°03' E 011°42'1212.2
2015-Jul-04 08:33N 56°51' E 011°50'1111.3
2015-Jul-04 07:33N 56°40' E 011°48'1212.5
2015-Jul-04 06:33N 56°29' E 011°37'1512.5
2015-Jul-04 05:19N 56°16' E 011°22'912.4
2015-Jul-04 04:33N 56°08' E 011°13'1312.9
2015-Jul-04 03:34N 55°57' E 011°00'6011.1
2015-Jul-03 22:11N 54°58' E 010°56'813.2
2015-Jul-03 21:33N 54°50' E 010°50'1111.5
2015-Jul-03 20:33N 54°39' E 010°52'1312.6
2015-Jul-03 19:33N 54°35' E 011°13'1313.0
2015-Jul-03 18:33N 54°30' E 011°33'1312.6
2015-Jul-03 17:33N 54°26' E 011°54'1111.5
2015-Jul-03 16:33N 54°29' E 012°13'1210.6
2015-Jul-03 15:26N 54°39' E 012°25'1412.8
2015-Jul-03 14:19N 54°47' E 012°45'1012.6
2015-Jul-03 13:33N 54°51' E 013°00'1312.6
2015-Jul-03 12:33N 54°55' E 013°21'1312.7
2015-Jul-03 11:33N 54°60' E 013°42'1312.6
2015-Jul-03 10:33N 55°04' E 014°02'1212.3
2015-Jul-03 09:33N 55°13' E 014°17'1312.7
2015-Jul-03 08:31N 55°23' E 014°31'1212.5
2015-Jul-03 07:33N 55°30' E 014°49'1312.5
2015-Jul-03 06:33N 55°36' E 015°09'1312.5
2015-Jul-03 05:31N 55°41' E 015°30'1212.2
2015-Jul-03 04:32N 55°43' E 015°50'1812.3
2015-Jul-03 03:05N 55°48' E 016°21'712.5
2015-Jul-03 02:33N 55°49' E 016°32'1312.7
2015-Jul-03 01:34N 55°53' E 016°54'1312.7
2015-Jul-03 00:34N 55°56' E 017°16'1312.6
2015-Jul-02 23:34N 55°59' E 017°38'1312.5
2015-Jul-02 22:33N 56°05' E 017°58'5012.4
2015-Jul-02 18:32N 56°39' E 019°03'1312.8
2015-Jul-02 17:34N 56°50' E 019°14'2512.5
2015-Jul-02 15:33N 57°12' E 019°36'14812.3
2015-Jul-02 03:33N 59°18' E 022°02'1212.4
2015-Jul-02 02:33N 59°26' E 022°21'1212.2
2015-Jul-02 01:33N 59°32' E 022°42'1312.6
2015-Jul-02 00:33N 59°36' E 023°06'1312.7
2015-Jul-01 23:33N 59°40' E 023°30'1312.7
2015-Jul-01 22:33N 59°43' E 023°54'1312.5
2015-Jul-01 21:33N 59°46' E 024°18'6312.6
2015-Jul-01 16:33N 59°60' E 026°20'1212.2
2015-Jul-01 15:34N 60°01' E 026°45'1411.7
2015-Jul-01 14:23N 60°02' E 027°12'12 0.2
2015-Jun-29 12:29N 60°07' E 027°33'1613.8
2015-Jun-29 11:18N 59°59' E 027°05'1013.6
2015-Jun-29 10:33N 59°59' E 026°45'1413.8
2015-Jun-29 09:33N 59°56' E 026°17'2814.1
2015-Jun-29 07:34N 59°50' E 025°23'1414.1
2015-Jun-29 06:32N 59°47' E 024°55'1414.2
2015-Jun-29 05:32N 59°44' E 024°27'1414.1
2015-Jun-29 04:33N 59°40' E 024°02'1414.3
2015-Jun-29 03:33N 59°35' E 023°35'1414.3
2015-Jun-29 02:33N 59°30' E 023°08'1414.2
2015-Jun-29 01:33N 59°25' E 022°42'1414.0
2015-Jun-29 00:33N 59°18' E 022°18'1414.2
2015-Jun-28 23:33N 59°09' E 021°57'7614.1
2015-Jun-28 18:12N 58°07' E 020°33'21613.8
2015-Jun-28 02:33N 55°43' E 015°41'1414.0
2015-Jun-28 01:33N 55°36' E 015°19'1413.8
2015-Jun-28 00:33N 55°29' E 014°58'1413.8
2015-Jun-27 23:33N 55°22' E 014°37'1413.8
2015-Jun-27 22:33N 55°12' E 014°21'1413.5
2015-Jun-27 21:33N 55°01' E 014°06'1714.0
2015-Jun-27 20:19N 54°55' E 013°38'5213.7
2015-Jun-27 16:33N 54°33' E 012°17'1413.6
2015-Jun-27 15:33N 54°21' E 012°07'1111.1
2015-Jun-27 14:33N 54°10' E 012°06'1 0.7
2015-Jun-27 13:33N 54°09' E 012°07'0 0.0
2015-Jun-27 12:12N 54°09' E 012°07'0 0.0
2015-Jun-27 11:12N 54°09' E 012°07'0 0.0
2015-Jun-27 10:33N 54°09' E 012°07'0 0.0
2015-Jun-27 09:12N 54°09' E 012°07'0 0.0
2015-Jun-27 08:33N 54°09' E 012°07'0 0.0
2015-Jun-27 07:33N 54°09' E 012°07'0 0.0
2015-Jun-27 06:33N 54°09' E 012°07'0 0.0
2015-Jun-27 05:27N 54°09' E 012°07'0 0.0
2015-Jun-27 04:33N 54°09' E 012°07'0 0.0
2015-Jun-27 03:33N 54°09' E 012°07'0 0.0
2015-Jun-27 02:33N 54°09' E 012°07'0 0.0
2015-Jun-27 01:18N 54°09' E 012°07'0 0.0
2015-Jun-26 23:30N 54°09' E 012°07'0 0.0
2015-Jun-26 22:18N 54°09' E 012°07'0 0.0
2015-Jun-26 21:30N 54°09' E 012°07'0 0.0
2015-Jun-26 20:24N 54°09' E 012°07'0 0.0
2015-Jun-26 19:33N 54°09' E 012°07'0 0.0
2015-Jun-26 18:33N 54°09' E 012°07'0 0.0
2015-Jun-26 17:12N 54°09' E 012°07'0 0.0
2015-Jun-26 16:24N 54°09' E 012°07'0 0.0
2015-Jun-26 15:21N 54°09' E 012°07'0 0.0
2015-Jun-26 14:27N 54°09' E 012°07'0 0.0
2015-Jun-26 13:27N 54°09' E 012°07'0 0.0
2015-Jun-26 11:27N 54°09' E 012°07'0 0.0
2015-Jun-26 10:30N 54°09' E 012°07'0 0.0
2015-Jun-26 09:30N 54°09' E 012°07'0 0.0
2015-Jun-26 08:27N 54°09' E 012°07'0 0.0
2015-Jun-26 07:33N 54°09' E 012°07'0 0.0
2015-Jun-26 06:09N 54°09' E 012°07'0 0.0
2015-Jun-26 04:12N 54°09' E 012°07'0 0.0
2015-Jun-26 03:06N 54°09' E 012°07'0 0.0
2015-Jun-26 02:33N 54°09' E 012°07'0 0.0
2015-Jun-26 01:12N 54°09' E 012°07'0 0.0
2015-Jun-25 21:27N 54°09' E 012°07'0 0.0
2015-Jun-25 20:27N 54°09' E 012°07'0 0.0
2015-Jun-25 19:33N 54°09' E 012°07'0 0.0
2015-Jun-25 18:30N 54°09' E 012°07'0 0.0
2015-Jun-25 17:27N 54°09' E 012°07'0 0.0
2015-Jun-25 16:27N 54°09' E 012°07'0 0.0
2015-Jun-25 15:24N 54°09' E 012°07'0 0.0
2015-Jun-25 14:24N 54°09' E 012°07'0 0.0
2015-Jun-25 13:30N 54°09' E 012°07'0 0.0
2015-Jun-25 11:12N 54°09' E 012°07'0 0.0
2015-Jun-25 10:24N 54°09' E 012°07'0 0.0
2015-Jun-25 08:30N 54°09' E 012°07'0 0.0
2015-Jun-25 07:27N 54°09' E 012°07'0 0.0
2015-Jun-25 06:30N 54°09' E 012°07'0 0.0
2015-Jun-25 04:24N 54°09' E 012°07'0 0.0
2015-Jun-25 00:21N 54°09' E 012°07'  
Track history (hours):
 
Tides and Currents Weather Stations Pressure Air Temp Water Temp Dewpoint Dewpoint Depression Visibility Wind Speed Wind Dir Waves Ship Positions

Zagreb

Last reported at 2015-Jul-04 23:33 UTC. Time now 2015-Jul-05 06:09 UTC.
Position N 56°60' E 007°54'.

Length 229 m; draft 13.1 m.

Type: Cargo ship. MMSI: 238249000.

Date/timePositionNaut miles runAvg speedWind from/ knotsBaromVisibWave heightAir tempDewpointWater temp
2015-Jul-04 23:33N 56°60' E 007°54'1212.2
2015-Jul-04 22:33N 57°09' E 008°08'1412.2
2015-Jul-04 21:24N 57°20' E 008°24'1112.3
2015-Jul-04 20:28N 57°29' E 008°38'1112.3
2015-Jul-04 19:33N 57°38' E 008°52'1211.7
2015-Jul-04 18:33N 57°45' E 009°09'1212.1
2015-Jul-04 17:33N 57°48' E 009°31'1111.2
2015-Jul-04 16:33N 57°50' E 009°52'1212.1
2015-Jul-04 15:32N 57°50' E 010°15'1212.2
2015-Jul-04 14:33N 57°50' E 010°38'1010.4
2015-Jul-04 13:33N 57°44' E 010°54'1312.8
2015-Jul-04 12:33N 57°35' E 011°11'1312.6
2015-Jul-04 11:33N 57°26' E 011°27'1212.4
2015-Jul-04 10:33N 57°14' E 011°35'1212.4
2015-Jul-04 09:34N 57°03' E 011°42'1212.2
2015-Jul-04 08:33N 56°51' E 011°50'1111.3
2015-Jul-04 07:33N 56°40' E 011°48'1212.5
2015-Jul-04 06:33N 56°29' E 011°37'1512.5
2015-Jul-04 05:19N 56°16' E 011°22'912.4
2015-Jul-04 04:33N 56°08' E 011°13'1312.9
2015-Jul-04 03:34N 55°57' E 011°00'6011.1
2015-Jul-03 22:11N 54°58' E 010°56'813.2
2015-Jul-03 21:33N 54°50' E 010°50'1111.5
2015-Jul-03 20:33N 54°39' E 010°52'1312.6
2015-Jul-03 19:33N 54°35' E 011°13'1313.0
2015-Jul-03 18:33N 54°30' E 011°33'1312.6
2015-Jul-03 17:33N 54°26' E 011°54'1111.5
2015-Jul-03 16:33N 54°29' E 012°13'1210.6
2015-Jul-03 15:26N 54°39' E 012°25'1412.8
2015-Jul-03 14:19N 54°47' E 012°45'1012.6
2015-Jul-03 13:33N 54°51' E 013°00'1312.6
2015-Jul-03 12:33N 54°55' E 013°21'1312.7
2015-Jul-03 11:33N 54°60' E 013°42'1312.6
2015-Jul-03 10:33N 55°04' E 014°02'1212.3
2015-Jul-03 09:33N 55°13' E 014°17'1312.7
2015-Jul-03 08:31N 55°23' E 014°31'1212.5
2015-Jul-03 07:33N 55°30' E 014°49'1312.5
2015-Jul-03 06:33N 55°36' E 015°09'1312.5
2015-Jul-03 05:31N 55°41' E 015°30'1212.2
2015-Jul-03 04:32N 55°43' E 015°50'1812.3
2015-Jul-03 03:05N 55°48' E 016°21'712.5
2015-Jul-03 02:33N 55°49' E 016°32'1312.7
2015-Jul-03 01:34N 55°53' E 016°54'1312.7
2015-Jul-03 00:34N 55°56' E 017°16'1312.6
2015-Jul-02 23:34N 55°59' E 017°38'1312.5
2015-Jul-02 22:33N 56°05' E 017°58'5012.4
2015-Jul-02 18:32N 56°39' E 019°03'1312.8
2015-Jul-02 17:34N 56°50' E 019°14'2512.5
2015-Jul-02 15:33N 57°12' E 019°36'14812.3
2015-Jul-02 03:33N 59°18' E 022°02'1212.4
2015-Jul-02 02:33N 59°26' E 022°21'1212.2
2015-Jul-02 01:33N 59°32' E 022°42'1312.6
2015-Jul-02 00:33N 59°36' E 023°06'1312.7
2015-Jul-01 23:33N 59°40' E 023°30'1312.7
2015-Jul-01 22:33N 59°43' E 023°54'1312.5
2015-Jul-01 21:33N 59°46' E 024°18'6312.6
2015-Jul-01 16:33N 59°60' E 026°20'1212.2
2015-Jul-01 15:34N 60°01' E 026°45'1411.7
2015-Jul-01 14:23N 60°02' E 027°12'12 0.2
2015-Jun-29 12:29N 60°07' E 027°33'1613.8
2015-Jun-29 11:18N 59°59' E 027°05'1013.6
2015-Jun-29 10:33N 59°59' E 026°45'1413.8
2015-Jun-29 09:33N 59°56' E 026°17'2814.1
2015-Jun-29 07:34N 59°50' E 025°23'1414.1
2015-Jun-29 06:32N 59°47' E 024°55'1414.2
2015-Jun-29 05:32N 59°44' E 024°27'1414.1
2015-Jun-29 04:33N 59°40' E 024°02'1414.3
2015-Jun-29 03:33N 59°35' E 023°35'1414.3
2015-Jun-29 02:33N 59°30' E 023°08'1414.2
2015-Jun-29 01:33N 59°25' E 022°42'1414.0
2015-Jun-29 00:33N 59°18' E 022°18'1414.2
2015-Jun-28 23:33N 59°09' E 021°57'7614.1
2015-Jun-28 18:12N 58°07' E 020°33'21613.8
2015-Jun-28 02:33N 55°43' E 015°41'1414.0
2015-Jun-28 01:33N 55°36' E 015°19'1413.8
2015-Jun-28 00:33N 55°29' E 014°58'1413.8
2015-Jun-27 23:33N 55°22' E 014°37'1413.8
2015-Jun-27 22:33N 55°12' E 014°21'1413.5
2015-Jun-27 21:33N 55°01' E 014°06'1714.0
2015-Jun-27 20:19N 54°55' E 013°38'5213.7
2015-Jun-27 16:33N 54°33' E 012°17'1413.6
2015-Jun-27 15:33N 54°21' E 012°07'1111.1
2015-Jun-27 14:33N 54°10' E 012°06'1 0.7
2015-Jun-27 13:33N 54°09' E 012°07'0 0.0
2015-Jun-27 12:12N 54°09' E 012°07'0 0.0
2015-Jun-27 11:12N 54°09' E 012°07'0 0.0
2015-Jun-27 10:33N 54°09' E 012°07'0 0.0
2015-Jun-27 09:12N 54°09' E 012°07'0 0.0
2015-Jun-27 08:33N 54°09' E 012°07'0 0.0
2015-Jun-27 07:33N 54°09' E 012°07'0 0.0
2015-Jun-27 06:33N 54°09' E 012°07'0 0.0
2015-Jun-27 05:27N 54°09' E 012°07'0 0.0
2015-Jun-27 04:33N 54°09' E 012°07'0 0.0
2015-Jun-27 03:33N 54°09' E 012°07'0 0.0
2015-Jun-27 02:33N 54°09' E 012°07'0 0.0
2015-Jun-27 01:18N 54°09' E 012°07'0 0.0
2015-Jun-26 23:30N 54°09' E 012°07'0 0.0
2015-Jun-26 22:18N 54°09' E 012°07'0 0.0
2015-Jun-26 21:30N 54°09' E 012°07'0 0.0
2015-Jun-26 20:24N 54°09' E 012°07'0 0.0
2015-Jun-26 19:33N 54°09' E 012°07'0 0.0
2015-Jun-26 18:33N 54°09' E 012°07'0 0.0
2015-Jun-26 17:12N 54°09' E 012°07'0 0.0
2015-Jun-26 16:24N 54°09' E 012°07'0 0.0
2015-Jun-26 15:21N 54°09' E 012°07'0 0.0
2015-Jun-26 14:27N 54°09' E 012°07'0 0.0
2015-Jun-26 13:27N 54°09' E 012°07'0 0.0
2015-Jun-26 11:27N 54°09' E 012°07'0 0.0
2015-Jun-26 10:30N 54°09' E 012°07'0 0.0
2015-Jun-26 09:30N 54°09' E 012°07'0 0.0
2015-Jun-26 08:27N 54°09' E 012°07'0 0.0
2015-Jun-26 07:33N 54°09' E 012°07'0 0.0
2015-Jun-26 06:09N 54°09' E 012°07'0 0.0
2015-Jun-26 04:12N 54°09' E 012°07'0 0.0
2015-Jun-26 03:06N 54°09' E 012°07'0 0.0
2015-Jun-26 02:33N 54°09' E 012°07'0 0.0
2015-Jun-26 01:12N 54°09' E 012°07'0 0.0
2015-Jun-25 21:27N 54°09' E 012°07'0 0.0
2015-Jun-25 20:27N 54°09' E 012°07'0 0.0
2015-Jun-25 19:33N 54°09' E 012°07'0 0.0
2015-Jun-25 18:30N 54°09' E 012°07'0 0.0
2015-Jun-25 17:27N 54°09' E 012°07'0 0.0
2015-Jun-25 16:27N 54°09' E 012°07'0 0.0
2015-Jun-25 15:24N 54°09' E 012°07'0 0.0
2015-Jun-25 14:24N 54°09' E 012°07'0 0.0
2015-Jun-25 13:30N 54°09' E 012°07'0 0.0
2015-Jun-25 11:12N 54°09' E 012°07'0 0.0
2015-Jun-25 10:24N 54°09' E 012°07'0 0.0
2015-Jun-25 08:30N 54°09' E 012°07'0 0.0
2015-Jun-25 07:27N 54°09' E 012°07'0 0.0
2015-Jun-25 06:30N 54°09' E 012°07'0 0.0
2015-Jun-25 04:24N 54°09' E 012°07'0 0.0
2015-Jun-25 00:21N 54°09' E 012°07'  

Dump ship's entire track history